ポンペイ島 の空港の天気 - METARとTAF

ポンペイ国際空港 ( PTPN / PNI ) - ミクロネシア連邦 ポンペイ島
飛行場実況気象(Metar)
観測時間11/30 14:50 +11 (11/30 03:50 UTC)
風向・風速東北東 5m/s
視程10km以上
天気現象
全天の4割程度の雲 雲底高度 550m
全天の8割程度の雲 雲底高度 3960m
全天を覆う雲 雲底高度 9140m
気温31℃
湿度70%
気圧1005hPa
METARPTPN 300350Z 07010KT 15SM SCT018 BKN130 OVC300 31/25 A2968 RMK LAST
過去の天気等 Google飛行場航空写真 Wunderground天気予報

過去48時間のMETAR

飛行場予報(TAF)
発表時間: 11/30 10:30 +11 (11/29 23:30 UTC)
予報対象時間: 30日11時 +11 ~ 1日11時 +11
風向・風速東 6m/s
視程10km以上
天気現象周辺でしゅう雨
全天の4割程度の雲 雲底高度 550m
全天の4割程度の雲 雲底高度 3660m
PTPN 292330Z 3000/3024 08011KT P6SM VCSH SCT018 SCT120